Time;durP1;ratioP1;P1;durP2;ratioP2;P2;SDS_P1;SDS_P2;PMS_P1;PMS_P2;Temp;Humidity;BMP_temperature;BMP_pressure;BME280_temperature;BME280_humidity;BME280_pressure;Samples;Min_cycle;Max_cycle;Signal;HPM_P1;HPM_P2
2022/04/08 00:01:16;;;;;;;0.30;0.30;;;;;;;11.13;100.00;94116.78;5094229;28;20477;-53
2022/04/08 00:03:48;;;;;;;0.30;0.30;;;;;;;10.51;100.00;94099.94;5093426;28;20428;-53
2022/04/08 00:06:16;;;;;;;0.30;0.20;;;;;;;10.96;100.00;94105.28;5094120;28;20464;-53
2022/04/08 00:08:46;;;;;;;0.40;0.37;;;;;;;11.07;100.00;94118.03;5094131;28;20492;-53
2022/04/08 00:11:15;;;;;;;0.30;0.20;;;;;;;11.25;100.00;94098.50;5094102;28;20482;-54
2022/04/08 00:13:43;;;;;;;0.40;0.30;;;;;;;11.34;100.00;94098.53;5093843;28;20915;-53
2022/04/08 00:16:12;;;;;;;0.57;0.57;;;;;;;11.03;100.00;94111.72;5093987;28;20551;-53
2022/04/08 00:18:40;;;;;;;0.30;0.20;;;;;;;11.12;100.00;94107.28;5093833;28;20818;-53
2022/04/08 00:21:10;;;;;;;0.30;0.20;;;;;;;11.23;100.00;94105.94;5093738;28;20889;-53
2022/04/08 00:23:38;;;;;;;0.30;0.30;;;;;;;10.45;100.00;94121.53;5093576;28;20460;-53
2022/04/08 00:26:07;;;;;;;0.30;0.20;;;;;;;10.35;100.00;94111.91;5093712;28;20420;-53
2022/04/08 00:28:35;;;;;;;0.30;0.20;;;;;;;10.64;100.00;94116.88;5093869;28;20436;-54
2022/04/08 00:31:04;;;;;;;0.30;0.20;;;;;;;10.80;100.00;94116.22;5093813;28;20511;-54
2022/04/08 00:33:33;;;;;;;0.30;0.20;;;;;;;11.08;100.00;94124.88;5094049;28;20424;-54
2022/04/08 00:36:02;;;;;;;0.30;0.20;;;;;;;10.92;100.00;94114.94;5093143;28;20468;-54
2022/04/08 00:38:32;;;;;;;0.30;0.20;;;;;;;10.87;100.00;94121.13;5093090;28;20463;-54
2022/04/08 00:41:01;;;;;;;0.30;0.20;;;;;;;10.76;100.00;94112.63;5094001;28;20428;-54
2022/04/08 00:43:34;;;;;;;0.40;0.40;;;;;;;10.89;100.00;94129.56;5093453;28;20460;-54
2022/04/08 00:46:04;;;;;;;1.17;0.30;;;;;;;10.80;100.00;94144.63;5092353;28;20471;-54
2022/04/08 00:48:32;;;;;;;0.30;0.20;;;;;;;11.01;100.00;94142.28;5092857;28;20439;-54
2022/04/08 00:51:01;;;;;;;0.30;0.20;;;;;;;10.91;100.00;94161.84;5093206;28;20527;-54
2022/04/08 00:53:32;;;;;;;0.30;0.30;;;;;;;10.52;100.00;94166.94;5092652;28;20516;-54
2022/04/08 00:56:01;;;;;;;0.30;0.20;;;;;;;10.37;100.00;94162.75;5093044;28;20904;-54
2022/04/08 00:58:30;;;;;;;0.30;0.20;;;;;;;10.16;100.00;94127.16;5093130;28;20476;-54
2022/04/08 01:00:58;;;;;;;0.47;0.47;;;;;;;9.50;100.00;94091.31;5092955;28;20429;-54
2022/04/08 01:03:27;;;;;;;0.30;0.20;;;;;;;9.91;100.00;94157.50;5093013;28;20454;-54
2022/04/08 01:05:55;;;;;;;2.23;1.07;;;;;;;10.28;100.00;94156.56;5092909;28;20436;-54
2022/04/08 01:08:24;;;;;;;0.40;0.30;;;;;;;10.24;100.00;94168.81;5093233;28;20448;-54
2022/04/08 01:10:54;;;;;;;0.50;0.30;;;;;;;9.75;100.00;94139.53;5092692;28;20529;-54
2022/04/08 01:13:23;;;;;;;0.30;0.20;;;;;;;10.03;100.00;94168.38;5092785;28;20431;-54
2022/04/08 01:15:51;;;;;;;0.30;0.20;;;;;;;10.39;100.00;94155.28;5092600;28;20456;-54
2022/04/08 01:18:20;;;;;;;0.30;0.20;;;;;;;10.51;100.00;94174.09;5092860;28;20448;-54
2022/04/08 01:20:48;;;;;;;0.30;0.20;;;;;;;10.68;100.00;94174.25;5092582;28;20523;-54
2022/04/08 01:23:18;;;;;;;0.30;0.20;;;;;;;10.71;100.00;94173.69;5092600;28;20424;-54
2022/04/08 01:25:47;;;;;;;0.30;0.30;;;;;;;10.69;100.00;94175.06;5092490;28;20429;-53
2022/04/08 01:28:16;;;;;;;0.30;0.30;;;;;;;10.76;100.00;94183.38;5092507;28;20456;-53
2022/04/08 01:30:44;;;;;;;0.30;0.20;;;;;;;10.71;100.00;94175.53;5092693;28;20464;-54
2022/04/08 01:33:12;;;;;;;0.30;0.20;;;;;;;10.68;100.00;94179.56;5092766;28;20868;-53
2022/04/08 01:35:41;;;;;;;0.30;0.20;;;;;;;10.92;100.00;94181.19;5092437;28;20472;-53
2022/04/08 01:38:10;;;;;;;0.30;0.20;;;;;;;10.65;100.00;94190.00;5092212;28;20511;-53
2022/04/08 01:40:38;;;;;;;0.30;0.20;;;;;;;9.67;100.00;94199.19;5092599;28;20425;-53
2022/04/08 01:43:08;;;;;;;0.40;0.30;;;;;;;8.90;100.00;94214.63;5092056;28;20834;-53
2022/04/08 01:45:37;;;;;;;0.30;0.20;;;;;;;8.65;100.00;94219.47;5092297;28;20436;-53
2022/04/08 01:48:06;;;;;;;0.30;0.20;;;;;;;8.34;100.00;94211.13;5091946;28;20413;-53
2022/04/08 01:50:35;;;;;;;0.43;0.40;;;;;;;8.77;100.00;94196.06;5091482;28;20456;-53
2022/04/08 01:53:03;;;;;;;0.40;0.30;;;;;;;9.23;100.00;94193.56;5091869;28;20420;-53
2022/04/08 01:55:32;;;;;;;0.30;0.20;;;;;;;9.49;100.00;94195.50;5091886;28;20483;-53
2022/04/08 01:58:08;;;;;;;0.30;0.20;;;;;;;9.79;100.00;94202.16;5091909;28;20571;-53
2022/04/08 02:00:36;;;;;;;0.30;0.20;;;;;;;9.70;100.00;94197.81;5092141;28;20794;-53
2022/04/08 02:03:05;;;;;;;0.30;0.20;;;;;;;10.07;100.00;94208.28;5092157;28;20424;-53
2022/04/08 02:05:33;;;;;;;0.30;0.20;;;;;;;9.65;100.00;94208.50;5092037;28;20452;-54
2022/04/08 02:08:02;;;;;;;0.40;0.40;;;;;;;9.84;100.00;94196.78;5092157;28;20456;-53
2022/04/08 02:10:30;;;;;;;1.63;1.23;;;;;;;9.55;100.00;94204.16;5091489;28;20500;-53
2022/04/08 02:12:59;;;;;;;0.30;0.30;;;;;;;9.72;100.00;94209.69;5092193;28;20805;-53
2022/04/08 02:15:33;;;;;;;0.87;0.87;;;;;;;9.64;100.00;94204.28;5092078;28;20432;-53
2022/04/08 02:18:02;;;;;;;0.30;0.20;;;;;;;9.55;100.00;94210.25;5091503;28;20476;-53
2022/04/08 02:20:30;;;;;;;0.30;0.20;;;;;;;9.12;100.00;94083.78;5091734;28;20913;-53
2022/04/08 02:23:00;;;;;;;0.30;0.20;;;;;;;9.50;100.00;94206.88;5092223;28;20806;-53
2022/04/08 02:25:29;;;;;;;0.50;0.40;;;;;;;9.03;100.00;94207.88;5091719;28;20428;-52
2022/04/08 02:27:58;;;;;;;0.30;0.20;;;;;;;9.31;100.00;94206.13;5091521;28;20465;-53
2022/04/08 02:30:28;;;;;;;0.30;0.20;;;;;;;9.33;100.00;94209.28;5091889;28;20894;-53
2022/04/08 02:32:57;;;;;;;0.40;0.30;;;;;;;9.52;100.00;94210.03;5091934;28;20869;-53
2022/04/08 02:35:25;;;;;;;0.33;0.27;;;;;;;9.77;100.00;94214.91;5091650;28;20960;-53
2022/04/08 02:37:54;;;;;;;0.40;0.30;;;;;;;9.54;100.00;94211.31;5091809;28;20508;-53
2022/04/08 02:40:22;;;;;;;0.40;0.33;;;;;;;9.94;100.00;94201.13;5091564;28;20527;-53
2022/04/08 02:42:51;;;;;;;0.40;0.40;;;;;;;9.85;100.00;94185.13;5091472;28;20890;-53
2022/04/08 02:45:19;;;;;;;0.30;0.20;;;;;;;9.86;100.00;94199.94;5091760;28;20500;-53
2022/04/08 02:47:49;;;;;;;0.30;0.20;;;;;;;9.07;100.00;94208.84;5091406;28;20489;-53
2022/04/08 02:50:17;;;;;;;0.50;0.30;;;;;;;8.50;100.00;94220.44;5091462;28;20493;-54
2022/04/08 02:52:46;;;;;;;0.30;0.20;;;;;;;8.19;100.00;94224.47;5091577;28;20437;-54
2022/04/08 02:55:14;;;;;;;0.77;0.77;;;;;;;7.94;100.00;94227.38;5091415;28;20468;-54
2022/04/08 02:57:46;;;;;;;0.30;0.20;;;;;;;8.34;100.00;94228.81;5091656;28;20463;-54
2022/04/08 03:00:16;;;;;;;2.60;1.47;;;;;;;8.94;100.00;94215.66;5091307;28;20948;-54
2022/04/08 03:02:45;;;;;;;0.40;0.37;;;;;;;9.36;100.00;94229.84;5094956;28;20464;-54
2022/04/08 03:05:16;;;;;;;0.30;0.20;;;;;;;9.10;100.00;94218.06;5095452;28;20416;-54
2022/04/08 03:07:44;;;;;;;0.30;0.20;;;;;;;9.27;100.00;94223.63;5095328;28;20794;-54
2022/04/08 03:10:13;;;;;;;0.50;0.37;;;;;;;9.35;100.00;94223.78;5094522;28;20510;-54
2022/04/08 03:12:42;;;;;;;0.30;0.20;;;;;;;9.40;100.00;94233.50;5095032;28;20425;-54
2022/04/08 03:15:11;;;;;;;0.30;0.20;;;;;;;9.61;100.00;94223.38;5094865;28;21011;-54
2022/04/08 03:17:39;;;;;;;0.30;0.20;;;;;;;9.65;100.00;94230.44;5095162;28;20543;-54
2022/04/08 03:20:08;;;;;;;0.30;0.20;;;;;;;9.50;100.00;94246.56;5095307;28;20455;-54
2022/04/08 03:22:38;;;;;;;2.50;0.60;;;;;;;9.22;100.00;94244.84;5094895;28;20432;-54
2022/04/08 03:25:07;;;;;;;0.30;0.20;;;;;;;9.30;100.00;94254.78;5094888;28;20416;-54
2022/04/08 03:27:35;;;;;;;0.30;0.20;;;;;;;9.52;100.00;94254.97;5094862;28;20460;-54
2022/04/08 03:30:04;;;;;;;0.40;0.30;;;;;;;9.47;100.00;94255.06;5094815;28;20515;-54
2022/04/08 03:32:32;;;;;;;0.30;0.20;;;;;;;9.24;100.00;94251.44;5094717;28;20501;-54
2022/04/08 03:35:01;;;;;;;0.40;0.30;;;;;;;9.43;100.00;94246.94;5094753;28;20908;-54
2022/04/08 03:37:31;;;;;;;0.50;0.40;;;;;;;9.34;100.00;94267.16;5094720;28;20507;-54
2022/04/08 03:40:01;;;;;;;0.40;0.30;;;;;;;9.15;100.00;94276.16;5094579;28;20477;-54
2022/04/08 03:42:29;;;;;;;0.47;0.30;;;;;;;8.51;100.00;94284.59;5094062;28;20432;-54
2022/04/08 03:44:57;;;;;;;0.70;0.70;;;;;;;8.76;100.00;94292.22;5094133;28;20428;-54
2022/04/08 03:47:26;;;;;;;0.30;0.20;;;;;;;8.97;100.00;94295.41;5093888;28;20523;-54
2022/04/08 03:49:54;;;;;;;0.43;0.43;;;;;;;8.72;100.00;94293.88;5094765;28;20455;-54
2022/04/08 03:52:23;;;;;;;0.40;0.30;;;;;;;8.67;100.00;94304.50;5094412;28;20901;-54
2022/04/08 03:54:51;;;;;;;0.40;0.30;;;;;;;8.49;100.00;94247.91;5094839;28;20428;-54
2022/04/08 03:57:21;;;;;;;0.30;0.20;;;;;;;8.34;100.00;94322.00;5094240;28;20897;-54
2022/04/08 03:59:49;;;;;;;0.30;0.20;;;;;;;8.61;100.00;94313.53;5094523;28;20794;-54
2022/04/08 04:02:18;;;;;;;0.50;0.40;;;;;;;8.52;100.00;94331.84;5094288;28;20428;-54
2022/04/08 04:04:46;;;;;;;0.43;0.40;;;;;;;8.59;100.00;94334.16;5094402;28;20428;-54
2022/04/08 04:07:15;;;;;;;0.40;0.37;;;;;;;8.60;100.00;94320.66;5094500;28;20432;-54
2022/04/08 04:09:44;;;;;;;0.30;0.20;;;;;;;8.72;100.00;94336.94;5093772;28;20468;-53
2022/04/08 04:12:12;;;;;;;0.40;0.40;;;;;;;8.54;100.00;94342.94;5093944;28;20523;-54
2022/04/08 04:14:43;;;;;;;1.33;1.23;;;;;;;8.27;100.00;94330.22;5093649;28;20490;-54
2022/04/08 04:17:11;;;;;;;0.83;0.83;;;;;;;8.34;100.00;94343.13;5094002;28;20511;-54
2022/04/08 04:19:40;;;;;;;0.60;0.50;;;;;;;8.43;100.00;94351.22;5093956;28;20557;-54
2022/04/08 04:22:08;;;;;;;1.17;1.07;;;;;;;8.49;100.00;94353.53;5093600;28;20451;-54
2022/04/08 04:24:37;;;;;;;0.30;0.30;;;;;;;8.67;100.00;94360.75;5094218;28;20510;-54
2022/04/08 04:27:05;;;;;;;0.63;0.63;;;;;;;8.58;100.00;94362.41;5094057;28;20865;-54
2022/04/08 04:29:34;;;;;;;4.20;3.10;;;;;;;8.54;100.00;94364.06;5093783;28;20468;-54
2022/04/08 04:32:05;;;;;;;0.50;0.50;;;;;;;8.50;100.00;94368.28;5093462;28;20432;-54
2022/04/08 04:34:36;;;;;;;0.53;0.50;;;;;;;8.78;100.00;94378.06;5093572;28;20876;-54
2022/04/08 04:37:05;;;;;;;0.40;0.30;;;;;;;8.72;100.00;94384.47;5093497;28;20488;-54
2022/04/08 04:39:33;;;;;;;0.40;0.30;;;;;;;8.85;100.00;94394.34;5093766;28;20480;-54
2022/04/08 04:42:02;;;;;;;0.50;0.50;;;;;;;8.76;100.00;94345.84;5093360;28;20436;-53
2022/04/08 04:44:30;;;;;;;1.40;1.27;;;;;;;8.92;100.00;94400.13;5093186;28;20897;-53
2022/04/08 04:46:59;;;;;;;0.40;0.40;;;;;;;9.09;100.00;94388.28;5092990;28;20440;-54
2022/04/08 04:49:28;;;;;;;0.63;0.63;;;;;;;9.31;100.00;94401.78;5093347;28;20467;-54
2022/04/08 04:51:57;;;;;;;0.33;0.27;;;;;;;9.26;100.00;94407.91;5093213;28;20432;-54
2022/04/08 04:54:25;;;;;;;3.40;2.30;;;;;;;9.55;100.00;94419.19;5093145;28;20440;-54
2022/04/08 04:56:54;;;;;;;2.10;2.00;;;;;;;9.79;100.00;94400.59;5093250;28;20421;-54
2022/04/08 04:59:22;;;;;;;0.73;0.53;;;;;;;9.82;100.00;94415.13;5092318;28;20504;-54
2022/04/08 05:01:50;;;;;;;1.10;1.10;;;;;;;9.93;100.00;94425.31;5093066;28;20491;-54
2022/04/08 05:04:19;;;;;;;0.90;0.60;;;;;;;10.13;100.00;94432.19;5092959;28;20524;-54
2022/04/08 05:06:49;;;;;;;0.50;0.50;;;;;;;9.44;100.00;94428.31;5092867;28;20475;-54
2022/04/08 05:09:18;;;;;;;1.80;1.40;;;;;;;9.65;100.00;94431.50;5092639;28;20487;-54
2022/04/08 05:11:46;;;;;;;3.03;1.13;;;;;;;9.59;100.00;94448.50;5091944;28;20477;-54
2022/04/08 05:14:15;;;;;;;0.60;0.60;;;;;;;9.32;100.00;94450.94;5092757;28;20835;-54
2022/04/08 05:16:43;;;;;;;1.63;1.63;;;;;;;9.07;100.00;94454.66;5093010;28;20456;-53
2022/04/08 05:19:12;;;;;;;1.67;1.53;;;;;;;8.93;100.00;94462.44;5092650;28;20460;-53
2022/04/08 05:21:40;;;;;;;1.30;1.30;;;;;;;9.49;100.00;94460.00;5092817;28;20464;-53
2022/04/08 05:24:10;;;;;;;0.97;0.97;;;;;;;9.25;100.00;94453.16;5092325;28;20497;-53
2022/04/08 05:26:39;;;;;;;1.30;1.30;;;;;;;9.42;100.00;94466.69;5092080;28;20857;-53
2022/04/08 05:29:07;;;;;;;0.50;0.30;;;;;;;9.29;100.00;94485.88;5092920;28;20428;-54
2022/04/08 05:31:36;;;;;;;1.67;0.60;;;;;;;9.71;100.00;94466.63;5092483;28;20436;-53
2022/04/08 05:34:04;;;;;;;0.77;0.70;;;;;;;9.48;100.00;94484.88;5092389;28;20795;-53
2022/04/08 05:36:33;;;;;;;0.97;0.97;;;;;;;9.36;100.00;94487.13;5092447;28;20895;-52
2022/04/08 05:39:01;;;;;;;0.63;0.63;;;;;;;9.08;100.00;94497.75;5092624;28;20528;-52
2022/04/08 05:41:31;;;;;;;1.07;1.00;;;;;;;8.48;100.00;94493.75;5092549;28;20790;-53
2022/04/08 05:44:00;;;;;;;0.93;0.93;;;;;;;3.59;100.00;93762.78;5092322;28;20463;-53
2022/04/08 05:46:29;;;;;;;0.77;0.70;;;;;;;8.38;100.00;94420.69;5092451;28;20463;-53
2022/04/08 05:48:57;;;;;;;0.37;0.33;;;;;;;8.85;100.00;94499.28;5092467;28;20459;-53
2022/04/08 05:51:26;;;;;;;0.40;0.30;;;;;;;9.92;100.00;94513.72;5092051;28;20481;-53
2022/04/08 05:54:08;;;;;;;0.60;0.60;;;;;;;10.38;100.00;94502.53;5091527;28;20425;-53
2022/04/08 05:56:39;;;;;;;1.53;0.50;;;;;;;10.51;100.00;94507.91;5091850;28;20433;-53
2022/04/08 05:59:09;;;;;;;0.70;0.70;;;;;;;10.54;100.00;94522.44;5092053;28;20521;-53
2022/04/08 06:01:38;;;;;;;0.40;0.40;;;;;;;10.68;100.00;94422.56;5091824;28;20425;-53
2022/04/08 06:04:06;;;;;;;1.23;1.23;;;;;;;10.23;100.00;94254.63;5091835;28;20440;-53
2022/04/08 06:06:38;;;;;;;0.63;0.47;;;;;;;12.28;100.00;94500.13;5091355;28;20474;-53
2022/04/08 06:09:11;;;;;;;0.40;0.40;;;;;;;10.81;100.00;94220.38;5091057;28;20476;-53
2022/04/08 06:11:42;;;;;;;2.77;1.23;;;;;;;12.93;100.00;94513.00;5091885;28;20777;-53
2022/04/08 06:14:11;;;;;;;0.30;0.30;;;;;;;12.93;100.00;94502.38;5091544;28;20462;-53
2022/04/08 06:16:39;;;;;;;0.40;0.30;;;;;;;13.43;100.00;94519.75;5091504;28;20897;-53
2022/04/08 06:19:09;;;;;;;3.40;1.13;;;;;;;13.78;100.00;94518.81;5091258;28;20873;-52
2022/04/08 06:21:37;;;;;;;1.40;0.40;;;;;;;14.02;100.00;94484.56;5091566;28;20436;-53
2022/04/08 06:24:06;;;;;;;0.40;0.40;;;;;;;14.54;94.65;94503.31;5091389;28;20447;-52
2022/04/08 06:26:36;;;;;;;0.50;0.37;;;;;;;14.83;93.02;94503.47;5092012;28;20425;-52
2022/04/08 06:29:08;;;;;;;0.97;0.50;;;;;;;14.91;97.44;94501.88;5091901;28;20464;-52
2022/04/08 06:31:37;;;;;;;0.50;0.50;;;;;;;15.42;98.54;94499.13;5091430;28;20485;-52
2022/04/08 06:34:05;;;;;;;0.60;0.60;;;;;;;15.37;95.58;94495.84;5091628;28;20429;-52
2022/04/08 06:36:34;;;;;;;0.80;0.50;;;;;;;15.41;97.91;94497.53;5093334;28;20471;-52
2022/04/08 06:39:02;;;;;;;0.63;0.63;;;;;;;15.80;94.40;94510.66;5095271;28;20464;-52
2022/04/08 06:41:31;;;;;;;0.70;0.63;;;;;;;16.00;89.76;94521.69;5095636;28;20941;-52
2022/04/08 06:44:00;;;;;;;1.57;1.47;;;;;;;15.99;93.75;94512.13;5095715;28;20880;-53
2022/04/08 06:46:30;;;;;;;0.63;0.63;;;;;;;16.54;91.26;94510.09;5095503;28;20456;-52
2022/04/08 06:49:02;;;;;;;1.23;1.13;;;;;;;16.29;83.18;94497.66;5094982;28;20507;-51
2022/04/08 06:51:31;;;;;;;0.70;0.67;;;;;;;17.10;78.02;94506.03;5095034;28;20428;-52
2022/04/08 06:54:00;;;;;;;2.10;1.07;;;;;;;17.48;75.73;94511.16;5095354;28;20481;-52
2022/04/08 06:56:29;;;;;;;3.03;0.70;;;;;;;16.66;76.30;94525.44;5095292;28;20458;-54
2022/04/08 06:58:57;;;;;;;0.53;0.40;;;;;;;16.51;77.21;94511.50;5095355;28;20941;-53
2022/04/08 07:01:26;;;;;;;0.50;0.50;;;;;;;16.98;73.01;94520.13;5095625;28;20425;-54
2022/04/08 07:03:56;;;;;;;0.60;0.40;;;;;;;17.65;73.80;94529.75;5095394;28;20432;-53
2022/04/08 07:06:24;;;;;;;0.40;0.30;;;;;;;17.44;74.12;94527.09;5095443;28;20567;-55
2022/04/08 07:08:53;;;;;;;0.83;0.83;;;;;;;17.82;67.78;94536.81;5094958;28;20432;-55
2022/04/08 07:11:21;;;;;;;0.50;0.50;;;;;;;18.12;63.22;94533.59;5095161;28;20473;-55
2022/04/08 07:13:50;;;;;;;0.50;0.40;;;;;;;18.49;62.44;94533.63;5095450;28;20485;-55
2022/04/08 07:16:18;;;;;;;0.40;0.40;;;;;;;18.32;57.27;94540.75;5095279;28;21015;-56
2022/04/08 07:18:46;;;;;;;0.70;0.70;;;;;;;18.57;64.84;94541.53;5094989;28;20871;-56
2022/04/08 07:21:16;;;;;;;0.63;0.50;;;;;;;18.27;63.38;94545.53;5094769;28;20533;-57
2022/04/08 07:23:45;;;;;;;0.40;0.30;;;;;;;18.17;60.27;94541.41;5095159;28;20911;-56
2022/04/08 07:26:13;;;;;;;0.40;0.30;;;;;;;18.60;58.50;94542.75;5095372;28;20467;-56
2022/04/08 07:28:43;;;;;;;0.53;0.53;;;;;;;18.81;64.23;94546.06;5094939;28;20955;-56
2022/04/08 07:31:12;;;;;;;0.70;0.40;;;;;;;18.89;58.01;94548.66;5094948;28;20920;-56
2022/04/08 07:33:41;;;;;;;0.50;0.40;;;;;;;19.31;57.98;94546.38;5094936;28;20443;-57
2022/04/08 07:36:11;;;;;;;0.40;0.30;;;;;;;19.61;53.02;94544.13;5095197;28;20419;-57
2022/04/08 07:38:41;;;;;;;0.40;0.20;;;;;;;19.49;52.25;94539.59;5094884;28;20428;-58
2022/04/08 07:41:09;;;;;;;0.40;0.30;;;;;;;19.63;53.57;94553.41;5094687;28;21064;-58
2022/04/08 07:43:38;;;;;;;0.40;0.30;;;;;;;18.77;52.38;94486.16;5094731;28;20433;-58
2022/04/08 07:46:06;;;;;;;0.40;0.30;;;;;;;19.35;49.31;94555.31;5094662;28;20463;-58
2022/04/08 07:48:34;;;;;;;0.40;0.30;;;;;;;19.78;49.94;94551.88;5093893;28;20425;-57
2022/04/08 07:51:03;;;;;;;0.50;0.30;;;;;;;19.88;54.10;94555.97;5094445;28;20856;-57
2022/04/08 07:53:32;;;;;;;0.40;0.30;;;;;;;20.21;49.65;94543.72;5094228;28;20516;-56
2022/04/08 07:56:02;;;;;;;0.40;0.30;;;;;;;20.31;47.55;94549.75;5094266;28;20459;-56
2022/04/08 07:58:30;;;;;;;1.47;0.97;;;;;;;20.58;45.92;94544.25;5094161;28;20462;-56
2022/04/08 08:00:59;;;;;;;0.80;0.30;;;;;;;20.01;47.76;94546.69;5093918;28;20492;-57
2022/04/08 08:03:27;;;;;;;0.60;0.60;;;;;;;19.94;49.24;94546.50;5094018;28;20429;-57
2022/04/08 08:05:56;;;;;;;0.40;0.30;;;;;;;20.47;49.07;94550.50;5094103;28;20425;-56
2022/04/08 08:08:24;;;;;;;0.60;0.40;;;;;;;20.59;49.56;94559.25;5094457;28;20440;-55
2022/04/08 08:10:54;;;;;;;0.40;0.30;;;;;;;20.58;46.41;94556.91;5093106;28;20515;-55
2022/04/08 08:13:24;;;;;;;0.40;0.40;;;;;;;21.05;45.49;94552.19;5094069;28;20418;-56
2022/04/08 08:15:54;;;;;;;3.33;1.60;;;;;;;21.56;44.64;94552.06;5094039;28;20460;-55
2022/04/08 08:18:24;;;;;;;0.40;0.40;;;;;;;21.49;44.10;94556.19;5094262;28;20478;-55
2022/04/08 08:20:53;;;;;;;1.87;0.40;;;;;;;21.71;45.29;94562.75;5094235;28;20553;-56
2022/04/08 08:23:21;;;;;;;0.50;0.50;;;;;;;21.96;46.99;94565.97;5094153;28;20470;-56
2022/04/08 08:25:49;;;;;;;0.60;0.60;;;;;;;22.48;42.92;94570.66;5093146;28;20424;-56
2022/04/08 08:28:29;;;;;;;0.40;0.30;;;;;;;22.94;46.21;94561.38;5093969;28;20425;-55
2022/04/08 08:30:58;;;;;;;0.50;0.33;;;;;;;22.34;47.41;94568.50;5093974;28;20428;-55
2022/04/08 08:33:26;;;;;;;0.40;0.30;;;;;;;22.48;43.59;94557.16;5093884;28;20741;-54
2022/04/08 08:35:55;;;;;;;0.60;0.53;;;;;;;22.52;44.60;94566.88;5093604;28;20452;-55
2022/04/08 08:38:23;;;;;;;0.40;0.40;;;;;;;23.35;42.76;94573.09;5093769;28;20471;-55
2022/04/08 08:40:52;;;;;;;0.50;0.50;;;;;;;22.91;42.88;94567.50;5093688;28;21003;-55
2022/04/08 08:43:21;;;;;;;0.40;0.30;;;;;;;22.03;42.29;94563.38;5093380;28;20523;-54
2022/04/08 08:45:51;;;;;;;0.30;0.20;;;;;;;22.94;39.27;94560.59;5093739;28;20466;-53
2022/04/08 08:48:24;;;;;;;1.60;1.50;;;;;;;23.35;38.67;94554.19;5093499;28;20471;-55
2022/04/08 08:50:55;;;;;;;0.40;0.30;;;;;;;23.03;36.59;94563.78;5092606;28;20448;-54
2022/04/08 08:53:24;;;;;;;0.40;0.37;;;;;;;23.12;36.93;94556.94;5093343;28;20507;-53
2022/04/08 08:55:52;;;;;;;0.30;0.30;;;;;;;25.07;34.27;94549.56;5093176;28;20424;-55
2022/04/08 08:58:21;;;;;;;0.50;0.30;;;;;;;25.93;34.91;94556.94;5093098;28;20457;-56
2022/04/08 09:00:51;;;;;;;0.40;0.30;;;;;;;25.51;33.41;94556.78;5092991;28;20463;-54
2022/04/08 09:03:19;;;;;;;0.40;0.30;;;;;;;25.69;35.64;94557.63;5092985;28;20967;-54
2022/04/08 09:05:52;;;;;;;0.40;0.30;;;;;;;25.41;32.52;94555.56;5093043;28;20951;-54
2022/04/08 09:08:20;;;;;;;0.40;0.30;;;;;;;26.88;30.64;94540.69;5092993;28;20420;-54
2022/04/08 09:10:49;;;;;;;0.50;0.40;;;;;;;27.07;30.92;94537.53;5092728;28;20529;-54
2022/04/08 09:13:20;;;;;;;0.40;0.33;;;;;;;25.99;30.89;94538.28;5093061;28;20471;-56
2022/04/08 09:15:58;;;;;;;0.40;0.30;;;;;;;26.29;30.12;94542.25;5093036;28;20504;-55
2022/04/08 09:18:30;;;;;;;0.70;0.43;;;;;;;25.88;31.37;94540.22;5092750;28;20448;-55
2022/04/08 09:21:05;;;;;;;0.40;0.30;;;;;;;27.13;31.22;94540.63;5092953;28;20463;-54
2022/04/08 09:23:34;;;;;;;0.40;0.30;;;;;;;25.75;31.24;94515.38;5093065;28;20421;-54
2022/04/08 09:26:05;;;;;;;2.00;0.50;;;;;;;26.18;31.94;94532.56;5092362;28;20960;-56
2022/04/08 09:28:35;;;;;;;1.23;1.23;;;;;;;27.12;32.02;94530.94;5092725;28;20867;-54
2022/04/08 09:31:06;;;;;;;1.33;0.80;;;;;;;28.04;31.34;94528.59;5092914;28;20421;-55
2022/04/08 09:33:34;;;;;;;0.40;0.30;;;;;;;29.09;27.74;94509.81;5092764;28;20453;-55
2022/04/08 09:36:03;;;;;;;0.63;0.63;;;;;;;27.46;26.54;94529.28;5091244;28;20433;-55
2022/04/08 09:38:32;;;;;;;0.30;0.27;;;;;;;26.72;29.26;94528.63;5093077;28;20760;-54
2022/04/08 09:41:02;;;;;;;0.33;0.30;;;;;;;27.23;27.75;94525.44;5092660;28;20850;-54
2022/04/08 09:43:34;;;;;;;0.70;0.70;;;;;;;26.14;27.06;94429.31;5092680;28;20442;-54
2022/04/08 09:46:18;;;;;;;0.40;0.40;;;;;;;26.77;27.06;94528.28;5092598;28;20428;-54
2022/04/08 09:48:48;;;;;;;0.37;0.27;;;;;;;27.62;29.35;94524.16;5092433;28;20434;-54
2022/04/08 09:51:20;;;;;;;0.40;0.40;;;;;;;28.44;25.46;94520.94;5091994;28;21019;-54
2022/04/08 09:53:55;;;;;;;0.30;0.30;;;;;;;27.54;26.87;94525.34;5092909;28;20501;-54
2022/04/08 09:56:26;;;;;;;0.33;0.27;;;;;;;27.94;25.42;94528.63;5092060;28;20443;-54
2022/04/08 09:59:01;;;;;;;0.40;0.30;;;;;;;27.83;27.02;94444.28;5092128;28;20929;-55
2022/04/08 10:01:31;;;;;;;0.67;0.53;;;;;;;26.73;28.22;94522.81;5091964;28;20472;-55
2022/04/08 10:04:00;;;;;;;0.40;0.40;;;;;;;26.60;26.34;94521.66;5092099;28;20425;-55
2022/04/08 10:06:29;;;;;;;0.37;0.30;;;;;;;26.46;26.34;94521.69;5092431;28;20428;-55
2022/04/08 10:08:58;;;;;;;0.40;0.40;;;;;;;27.61;25.91;94486.44;5091667;28;20515;-55
2022/04/08 10:11:34;;;;;;;0.40;0.40;;;;;;;27.19;28.34;94500.97;5091421;28;20518;-55
2022/04/08 10:14:35;;;;;;;0.80;0.80;;;;;;;27.41;26.42;94499.75;5092050;28;20452;-55
2022/04/08 10:17:09;;;;;;;0.50;0.50;;;;;;;27.31;25.02;94499.75;5080103;28;20479;-54
2022/04/08 10:19:38;;;;;;;0.47;0.40;;;;;;;28.15;25.61;94509.47;5091899;28;20464;-56
2022/04/08 10:22:17;;;;;;;0.50;0.40;;;;;;;28.33;24.91;94496.50;5090807;28;21009;-56
2022/04/08 10:24:53;;;;;;;0.40;0.40;;;;;;;27.26;24.24;94505.63;5091885;28;20748;-56
2022/04/08 10:27:32;;;;;;;0.50;0.50;;;;;;;28.67;23.51;94489.19;5092062;28;20893;-55
2022/04/08 10:30:01;;;;;;;0.40;0.33;;;;;;;29.32;24.19;94492.81;5091955;28;20424;-55
2022/04/08 10:32:39;;;;;;;0.40;0.30;;;;;;;29.62;23.29;94492.81;5091531;28;20428;-55
2022/04/08 10:35:18;;;;;;;0.80;0.40;;;;;;;27.49;23.86;94495.84;5091837;28;20435;-56
2022/04/08 10:37:58;;;;;;;0.30;0.20;;;;;;;29.06;21.87;94488.03;5091738;28;20452;-55
2022/04/08 10:40:34;;;;;;;0.30;0.20;;;;;;;29.88;22.17;94478.44;5091120;28;20546;-55
2022/04/08 10:43:05;;;;;;;0.40;0.30;;;;;;;29.79;22.38;94478.19;5091542;28;20542;-56
2022/04/08 10:45:34;;;;;;;0.30;0.20;;;;;;;30.39;21.45;94484.72;5091498;28;20503;-56
2022/04/08 10:48:14;;;;;;;0.40;0.30;;;;;;;29.84;21.17;94482.41;5091452;28;20944;-56
2022/04/08 10:50:43;;;;;;;0.40;0.40;;;;;;;30.63;21.41;94480.78;5091398;28;20475;-55
2022/04/08 10:53:13;;;;;;;0.50;0.40;;;;;;;31.34;22.01;94472.06;5091342;28;20470;-56
2022/04/08 10:55:51;;;;;;;0.40;0.30;;;;;;;31.06;21.37;94465.19;5091286;28;20920;-54
2022/04/08 10:58:31;;;;;;;0.30;0.30;;;;;;;31.93;21.15;94467.25;5091434;28;20420;-55
2022/04/08 11:01:00;;;;;;;0.50;0.50;;;;;;;31.83;19.50;94456.53;5090846;28;20427;-55
2022/04/08 11:03:31;;;;;;;0.40;0.30;;;;;;;30.48;20.40;94455.66;5091408;28;20521;-56
2022/04/08 11:05:59;;;;;;;0.93;0.30;;;;;;;30.95;21.29;94434.50;5091424;28;20485;-55
2022/04/08 11:08:28;;;;;;;0.50;0.30;;;;;;;31.23;22.01;94444.09;5091321;28;20430;-54
2022/04/08 11:10:58;;;;;;;0.30;0.20;;;;;;;30.91;20.47;94450.22;5090946;28;20862;-55
2022/04/08 11:13:27;;;;;;;0.40;0.30;;;;;;;28.50;22.35;94451.94;5091564;28;20481;-55
2022/04/08 11:16:01;;;;;;;0.50;0.40;;;;;;;30.05;21.44;94443.84;5091306;28;21057;-55
2022/04/08 11:18:32;;;;;;;0.30;0.20;;;;;;;28.81;21.75;94450.88;5091243;28;20424;-54
2022/04/08 11:21:01;;;;;;;0.40;0.40;;;;;;;28.12;23.04;94442.94;5090529;28;20997;-54
2022/04/08 11:23:32;;;;;;;0.40;0.30;;;;;;;27.99;22.41;94460.13;5092221;28;20467;-55
2022/04/08 11:26:01;;;;;;;0.40;0.30;;;;;;;28.34;22.11;94457.91;5093771;28;20931;-55
2022/04/08 11:28:30;;;;;;;0.40;0.30;;;;;;;28.53;22.11;94472.94;5094234;28;20884;-55
2022/04/08 11:31:19;;;;;;;0.60;0.60;;;;;;;27.99;21.83;94457.41;5094694;28;20471;-55
2022/04/08 11:33:50;;;;;;;0.30;0.23;;;;;;;29.65;22.16;94447.53;5094820;28;20424;-56
2022/04/08 11:36:24;;;;;;;0.30;0.20;;;;;;;30.45;21.15;94450.25;5095233;28;20807;-55
2022/04/08 11:38:52;;;;;;;0.30;0.30;;;;;;;28.04;22.19;94441.44;5094641;28;20506;-55
2022/04/08 11:41:33;;;;;;;0.50;0.40;;;;;;;28.26;23.07;94444.75;5094857;28;20768;-56
2022/04/08 11:44:03;;;;;;;0.40;0.40;;;;;;;29.07;21.45;94392.09;5094680;28;20520;-55